sensor_id;sensor_type;location;lat;lon;timestamp;P1;durP1;ratioP1;P2;durP2;ratioP2
28577;SDS011;15769;52.248;15.818;2022-07-03T07:26:36;1029.35;;;947.67;;
28577;SDS011;15769;52.248;15.818;2022-07-03T07:32:16;1030.57;;;948.00;;
28577;SDS011;15769;52.248;15.818;2022-07-03T07:37:20;1057.63;;;974.13;;
28577;SDS011;15769;52.248;15.818;2022-07-03T07:42:28;1053.70;;;970.28;;
28577;SDS011;15769;52.248;15.818;2022-07-03T07:47:35;1039.13;;;959.10;;
28577;SDS011;15769;52.248;15.818;2022-07-03T07:52:38;1047.47;;;968.22;;
28577;SDS011;15769;52.248;15.818;2022-07-03T07:57:49;1033.10;;;951.53;;
28577;SDS011;15769;52.248;15.818;2022-07-03T08:03:35;1051.90;;;969.20;;
28577;SDS011;15769;52.248;15.818;2022-07-03T08:14:50;1052.28;;;969.83;;
28577;SDS011;15769;52.248;15.818;2022-07-03T08:20:17;1036.65;;;954.58;;
28577;SDS011;15769;52.248;15.818;2022-07-03T08:25:49;1032.80;;;951.58;;
28577;SDS011;15769;52.248;15.818;2022-07-03T08:31:54;1027.47;;;946.08;;
28577;SDS011;15769;52.248;15.818;2022-07-03T08:37:00;1040.35;;;957.83;;
28577;SDS011;15769;52.248;15.818;2022-07-03T08:42:21;1042.10;;;960.03;;
28577;SDS011;15769;52.248;15.818;2022-07-03T08:47:56;1035.38;;;958.53;;
28577;SDS011;15769;52.248;15.818;2022-07-03T08:53:09;1021.20;;;942.30;;
28577;SDS011;15769;52.248;15.818;2022-07-03T08:58:25;1033.65;;;953.72;;
28577;SDS011;15769;52.248;15.818;2022-07-03T09:03:36;1058.25;;;975.50;;
28577;SDS011;15769;52.248;15.818;2022-07-03T09:08:53;1035.93;;;958.72;;
28577;SDS011;15769;52.248;15.818;2022-07-03T09:14:03;1004.65;;;932.03;;
28577;SDS011;15769;52.248;15.818;2022-07-03T09:19:10;832.08;;;764.28;;
28577;SDS011;15769;52.248;15.818;2022-07-03T09:24:46;693.95;;;631.50;;
28577;SDS011;15769;52.248;15.818;2022-07-03T09:30:57;688.67;;;626.28;;
28577;SDS011;15769;52.248;15.818;2022-07-03T09:36:42;664.83;;;603.42;;
28577;SDS011;15769;52.248;15.818;2022-07-03T09:42:05;673.75;;;612.05;;
28577;SDS011;15769;52.248;15.818;2022-07-03T09:48:45;720.28;;;657.55;;
28577;SDS011;15769;52.248;15.818;2022-07-03T09:53:54;771.58;;;707.70;;
28577;SDS011;15769;52.248;15.818;2022-07-03T09:59:27;681.72;;;620.00;;
28577;SDS011;15769;52.248;15.818;2022-07-03T10:04:38;719.28;;;656.55;;
28577;SDS011;15769;52.248;15.818;2022-07-03T10:09:51;773.03;;;709.08;;
28577;SDS011;15769;52.248;15.818;2022-07-03T10:15:23;661.15;;;599.60;;
28577;SDS011;15769;52.248;15.818;2022-07-03T10:21:27;645.17;;;584.00;;
28577;SDS011;15769;52.248;15.818;2022-07-03T10:26:48;660.55;;;599.20;;
28577;SDS011;15769;52.248;15.818;2022-07-03T10:31:56;664.40;;;603.00;;
28577;SDS011;15769;52.248;15.818;2022-07-03T10:37:30;655.85;;;594.55;;
28577;SDS011;15769;52.248;15.818;2022-07-03T10:43:33;644.70;;;583.40;;
28577;SDS011;15769;52.248;15.818;2022-07-03T10:50:01;609.88;;;550.05;;
28577;SDS011;15769;52.248;15.818;2022-07-03T10:56:01;600.40;;;539.90;;
28577;SDS011;15769;52.248;15.818;2022-07-03T11:01:30;607.28;;;547.00;;
28577;SDS011;15769;52.248;15.818;2022-07-03T11:07:08;619.35;;;558.80;;
28577;SDS011;15769;52.248;15.818;2022-07-03T11:18:16;623.53;;;562.90;;
28577;SDS011;15769;52.248;15.818;2022-07-03T11:29:36;620.38;;;559.80;;
28577;SDS011;15769;52.248;15.818;2022-07-03T11:34:42;621.47;;;560.95;;
28577;SDS011;15769;52.248;15.818;2022-07-03T11:39:51;618.50;;;558.13;;
28577;SDS011;15769;52.248;15.818;2022-07-03T11:44:57;630.13;;;569.33;;
28577;SDS011;15769;52.248;15.818;2022-07-03T11:50:16;619.53;;;558.67;;
28577;SDS011;15769;52.248;15.818;2022-07-03T11:55:45;542.00;;;483.10;;
28577;SDS011;15769;52.248;15.818;2022-07-03T12:00:52;578.00;;;518.55;;
28577;SDS011;15769;52.248;15.818;2022-07-03T12:06:14;596.38;;;536.08;;
28577;SDS011;15769;52.248;15.818;2022-07-03T12:11:24;605.92;;;545.40;;
28577;SDS011;15769;52.248;15.818;2022-07-03T12:16:37;580.60;;;520.80;;
28577;SDS011;15769;52.248;15.818;2022-07-03T12:27:37;606.10;;;545.92;;
28577;SDS011;15769;52.248;15.818;2022-07-03T12:32:46;629.28;;;568.40;;
28577;SDS011;15769;52.248;15.818;2022-07-03T12:37:48;653.47;;;591.58;;
28577;SDS011;15769;52.248;15.818;2022-07-03T12:42:55;673.25;;;611.03;;
28577;SDS011;15769;52.248;15.818;2022-07-03T12:48:01;681.85;;;619.60;;
28577;SDS011;15769;52.248;15.818;2022-07-03T12:53:05;697.80;;;635.00;;
28577;SDS011;15769;52.248;15.818;2022-07-03T12:58:13;670.30;;;608.58;;
28577;SDS011;15769;52.248;15.818;2022-07-03T13:03:40;642.70;;;581.53;;
28577;SDS011;15769;52.248;15.818;2022-07-03T13:09:09;636.40;;;575.47;;
28577;SDS011;15769;52.248;15.818;2022-07-03T13:14:15;611.72;;;551.47;;
28577;SDS011;15769;52.248;15.818;2022-07-03T13:19:48;638.38;;;577.08;;
28577;SDS011;15769;52.248;15.818;2022-07-03T13:25:05;602.70;;;542.30;;
28577;SDS011;15769;52.248;15.818;2022-07-03T13:30:36;599.17;;;538.90;;
28577;SDS011;15769;52.248;15.818;2022-07-03T13:36:44;586.38;;;525.90;;
28577;SDS011;15769;52.248;15.818;2022-07-03T13:41:58;597.17;;;536.90;;
28577;SDS011;15769;52.248;15.818;2022-07-03T13:47:33;597.30;;;536.92;;
28577;SDS011;15769;52.248;15.818;2022-07-03T13:53:05;609.53;;;549.20;;
28577;SDS011;15769;52.248;15.818;2022-07-03T13:58:26;604.30;;;543.97;;
28577;SDS011;15769;52.248;15.818;2022-07-03T14:03:32;610.58;;;550.30;;
28577;SDS011;15769;52.248;15.818;2022-07-03T14:08:37;631.97;;;571.10;;
28577;SDS011;15769;52.248;15.818;2022-07-03T14:13:40;638.92;;;578.03;;
28577;SDS011;15769;52.248;15.818;2022-07-03T14:18:44;643.67;;;582.53;;
28577;SDS011;15769;52.248;15.818;2022-07-03T14:23:54;643.45;;;582.33;;
28577;SDS011;15769;52.248;15.818;2022-07-03T14:29:13;631.67;;;571.05;;
28577;SDS011;15769;52.248;15.818;2022-07-03T14:34:38;637.28;;;576.22;;
28577;SDS011;15769;52.248;15.818;2022-07-03T14:39:57;638.17;;;577.22;;
28577;SDS011;15769;52.248;15.818;2022-07-03T14:45:07;638.35;;;577.20;;
28577;SDS011;15769;52.248;15.818;2022-07-03T14:50:28;607.03;;;546.67;;
28577;SDS011;15769;52.248;15.818;2022-07-03T14:55:53;623.30;;;562.47;;
28577;SDS011;15769;52.248;15.818;2022-07-03T15:01:04;612.53;;;551.67;;
28577;SDS011;15769;52.248;15.818;2022-07-03T15:06:20;628.13;;;567.38;;
28577;SDS011;15769;52.248;15.818;2022-07-03T15:12:13;606.67;;;546.05;;
28577;SDS011;15769;52.248;15.818;2022-07-03T15:17:29;579.60;;;519.22;;
28577;SDS011;15769;52.248;15.818;2022-07-03T15:22:45;581.65;;;521.42;;
28577;SDS011;15769;52.248;15.818;2022-07-03T15:27:52;524.95;;;427.90;;
28577;SDS011;15769;52.248;15.818;2022-07-03T15:33:00;566.55;;;506.42;;
28577;SDS011;15769;52.248;15.818;2022-07-03T15:38:20;556.45;;;496.42;;
28577;SDS011;15769;52.248;15.818;2022-07-03T15:43:42;518.33;;;384.90;;
28577;SDS011;15769;52.248;15.818;2022-07-03T15:49:30;511.83;;;350.35;;
28577;SDS011;15769;52.248;15.818;2022-07-03T15:55:02;511.97;;;336.43;;
28577;SDS011;15769;52.248;15.818;2022-07-03T16:00:20;500.00;;;289.57;;
28577;SDS011;15769;52.248;15.818;2022-07-03T16:10:50;512.70;;;333.17;;
28577;SDS011;15769;52.248;15.818;2022-07-03T16:15:57;506.03;;;285.10;;
28577;SDS011;15769;52.248;15.818;2022-07-03T16:21:05;505.97;;;276.43;;
28577;SDS011;15769;52.248;15.818;2022-07-03T16:26:09;500.93;;;250.70;;
28577;SDS011;15769;52.248;15.818;2022-07-03T16:31:19;500.23;;;268.50;;
28577;SDS011;15769;52.248;15.818;2022-07-03T16:36:33;494.47;;;250.63;;
28577;SDS011;15769;52.248;15.818;2022-07-03T16:41:44;485.43;;;217.03;;
28577;SDS011;15769;52.248;15.818;2022-07-03T16:46:55;487.73;;;226.50;;
28577;SDS011;15769;52.248;15.818;2022-07-03T17:02:54;490.10;;;229.70;;
28577;SDS011;15769;52.248;15.818;2022-07-03T17:08:41;498.23;;;249.87;;
28577;SDS011;15769;52.248;15.818;2022-07-03T17:14:30;500.17;;;266.73;;
28577;SDS011;15769;52.248;15.818;2022-07-03T17:20:21;503.57;;;269.90;;
28577;SDS011;15769;52.248;15.818;2022-07-03T17:25:32;495.00;;;230.47;;
28577;SDS011;15769;52.248;15.818;2022-07-03T17:35:50;489.80;;;219.60;;
28577;SDS011;15769;52.248;15.818;2022-07-03T17:41:01;485.83;;;207.73;;
28577;SDS011;15769;52.248;15.818;2022-07-03T17:46:04;486.80;;;210.43;;
28577;SDS011;15769;52.248;15.818;2022-07-03T17:51:09;488.60;;;208.43;;
28577;SDS011;15769;52.248;15.818;2022-07-03T17:56:14;483.47;;;201.93;;
28577;SDS011;15769;52.248;15.818;2022-07-03T18:01:18;489.50;;;204.30;;
28577;SDS011;15769;52.248;15.818;2022-07-03T18:06:21;479.87;;;197.60;;
28577;SDS011;15769;52.248;15.818;2022-07-03T18:11:50;485.43;;;195.80;;
28577;SDS011;15769;52.248;15.818;2022-07-03T18:17:00;473.27;;;185.10;;
28577;SDS011;15769;52.248;15.818;2022-07-03T18:22:04;462.73;;;174.77;;
28577;SDS011;15769;52.248;15.818;2022-07-03T18:27:12;468.30;;;180.20;;
28577;SDS011;15769;52.248;15.818;2022-07-03T18:32:16;465.30;;;174.83;;
28577;SDS011;15769;52.248;15.818;2022-07-03T18:37:20;464.37;;;172.40;;
28577;SDS011;15769;52.248;15.818;2022-07-03T18:42:22;465.27;;;172.13;;
28577;SDS011;15769;52.248;15.818;2022-07-03T18:47:25;459.70;;;170.70;;
28577;SDS011;15769;52.248;15.818;2022-07-03T18:52:51;457.80;;;169.67;;
28577;SDS011;15769;52.248;15.818;2022-07-03T18:58:33;455.77;;;166.80;;
28577;SDS011;15769;52.248;15.818;2022-07-03T19:08:58;459.03;;;167.27;;
28577;SDS011;15769;52.248;15.818;2022-07-03T19:14:12;456.17;;;163.13;;
28577;SDS011;15769;52.248;15.818;2022-07-03T19:19:15;448.33;;;157.73;;
28577;SDS011;15769;52.248;15.818;2022-07-03T19:24:18;461.27;;;162.03;;
28577;SDS011;15769;52.248;15.818;2022-07-03T19:29:20;455.17;;;157.27;;
28577;SDS011;15769;52.248;15.818;2022-07-03T19:34:24;450.57;;;155.37;;
28577;SDS011;15769;52.248;15.818;2022-07-03T19:39:30;456.55;;;155.90;;
28577;SDS011;15769;52.248;15.818;2022-07-03T19:44:41;453.20;;;151.57;;
28577;SDS011;15769;52.248;15.818;2022-07-03T19:49:47;450.70;;;151.03;;
28577;SDS011;15769;52.248;15.818;2022-07-03T19:54:50;449.10;;;148.93;;
28577;SDS011;15769;52.248;15.818;2022-07-03T19:59:55;452.03;;;151.47;;
28577;SDS011;15769;52.248;15.818;2022-07-03T20:04:58;447.80;;;148.83;;
28577;SDS011;15769;52.248;15.818;2022-07-03T20:10:00;443.50;;;146.18;;
28577;SDS011;15769;52.248;15.818;2022-07-03T20:15:04;439.40;;;143.17;;
28577;SDS011;15769;52.248;15.818;2022-07-03T20:20:09;444.97;;;145.77;;
28577;SDS011;15769;52.248;15.818;2022-07-03T20:25:14;447.20;;;146.60;;
28577;SDS011;15769;52.248;15.818;2022-07-03T20:30:18;452.00;;;146.70;;
28577;SDS011;15769;52.248;15.818;2022-07-03T20:35:20;450.40;;;146.52;;
